createdAt,value
2024-02-26T00:01:08.203Z,6.40
2024-02-26T00:03:37.343Z,6.50
2024-02-26T00:06:07.131Z,6.50
2024-02-26T00:08:35.417Z,6.50
2024-02-26T00:11:04.025Z,6.60
2024-02-26T00:13:32.133Z,6.60
2024-02-26T00:16:00.489Z,6.50
2024-02-26T00:18:28.825Z,6.60
2024-02-26T00:20:56.976Z,6.70
2024-02-26T00:23:26.425Z,6.60
2024-02-26T00:25:55.595Z,6.70
2024-02-26T00:28:26.781Z,6.60
2024-02-26T00:30:57.062Z,6.70
2024-02-26T00:33:25.584Z,6.60
2024-02-26T00:35:53.712Z,6.60
2024-02-26T00:38:21.975Z,6.60
2024-02-26T00:40:51.405Z,6.70
2024-02-26T00:43:19.529Z,6.80
2024-02-26T00:45:48.312Z,6.70
2024-02-26T00:48:16.492Z,6.60
2024-02-26T00:50:45.030Z,6.60
2024-02-26T00:53:13.177Z,6.60
2024-02-26T00:55:41.337Z,6.60
2024-02-26T00:58:11.530Z,6.70
2024-02-26T01:00:39.703Z,6.70
2024-02-26T01:03:07.885Z,6.70
2024-02-26T01:05:36.078Z,6.80
2024-02-26T01:08:04.503Z,6.80
2024-02-26T01:10:32.676Z,6.70
2024-02-26T01:13:00.869Z,6.60
2024-02-26T01:15:30.319Z,6.60
2024-02-26T01:17:58.414Z,6.50
2024-02-26T01:20:26.467Z,6.40
2024-02-26T01:22:54.615Z,6.20
2024-02-26T01:25:22.672Z,6.10
2024-02-26T01:27:50.725Z,6.00
2024-02-26T01:30:18.873Z,6.00
2024-02-26T01:32:48.628Z,6.00
2024-02-26T01:35:16.868Z,6.10
2024-02-26T01:37:45.043Z,6.00
2024-02-26T01:40:18.980Z,6.00
2024-02-26T01:42:47.012Z,6.10
2024-02-26T01:45:22.167Z,6.10
2024-02-26T01:47:53.857Z,6.10
2024-02-26T01:50:23.287Z,6.10
2024-02-26T01:52:53.183Z,6.20
2024-02-26T01:55:22.432Z,6.30
2024-02-26T01:57:53.076Z,6.20
2024-02-26T02:00:22.900Z,6.20
2024-02-26T02:02:53.708Z,6.20
2024-02-26T02:05:23.736Z,6.20
2024-02-26T02:07:52.547Z,6.30
2024-02-26T02:10:24.423Z,6.40
2024-02-26T02:12:52.943Z,6.40
2024-02-26T02:15:21.606Z,6.60
2024-02-26T02:17:50.438Z,6.40
2024-02-26T02:20:20.891Z,6.40
2024-02-26T02:22:50.268Z,6.50
2024-02-26T02:25:18.361Z,6.40
2024-02-26T02:27:46.716Z,6.60
2024-02-26T02:30:16.605Z,6.60
2024-02-26T02:32:45.586Z,6.60
2024-02-26T02:35:13.721Z,6.70
2024-02-26T02:37:41.764Z,6.70
2024-02-26T02:40:11.866Z,6.70
2024-02-26T02:42:39.982Z,6.60
2024-02-26T02:45:33.008Z,6.50
2024-02-26T02:48:01.407Z,6.50
2024-02-26T02:50:30.135Z,6.50
2024-02-26T02:52:58.254Z,6.50
2024-02-26T02:55:27.811Z,6.50
2024-02-26T02:57:56.097Z,6.60
2024-02-26T03:00:24.864Z,6.60
2024-02-26T03:02:53.054Z,6.50
2024-02-26T03:05:21.339Z,6.50
2024-02-26T03:07:49.411Z,6.40
2024-02-26T03:10:17.563Z,6.50
2024-02-26T03:12:47.903Z,6.50
2024-02-26T03:15:16.062Z,6.50
2024-02-26T03:17:44.278Z,6.50
2024-02-26T03:20:12.973Z,6.80
2024-02-26T03:22:41.935Z,6.90
2024-02-26T03:25:10.711Z,6.90
2024-02-26T03:27:38.910Z,6.80
2024-02-26T03:30:10.151Z,6.70
2024-02-26T03:32:38.336Z,6.70
2024-02-26T03:35:08.548Z,6.70
2024-02-26T03:37:36.778Z,6.60
2024-02-26T03:40:05.344Z,6.60
2024-02-26T03:42:33.505Z,6.50
2024-02-26T03:45:01.835Z,6.50
2024-02-26T03:47:31.519Z,6.50
2024-02-26T03:50:00.472Z,6.60
2024-02-26T03:52:28.643Z,6.70
2024-02-26T03:54:56.844Z,6.60
2024-02-26T03:57:24.977Z,6.60
2024-02-26T03:59:53.102Z,6.50
2024-02-26T04:02:21.543Z,6.60
2024-02-26T04:04:51.151Z,6.60
2024-02-26T04:07:19.384Z,6.70
2024-02-26T04:09:47.512Z,6.60
2024-02-26T04:12:15.818Z,6.50
2024-02-26T04:14:44.142Z,6.50
2024-02-26T04:17:12.507Z,6.40
2024-02-26T04:19:40.622Z,6.40
2024-02-26T04:22:10.132Z,6.50
2024-02-26T04:24:38.902Z,6.50
2024-02-26T04:27:07.305Z,6.60
2024-02-26T04:29:35.435Z,6.50
2024-02-26T04:32:03.895Z,6.60
2024-02-26T04:34:32.054Z,6.50
2024-02-26T04:37:00.125Z,6.60
2024-02-26T04:39:29.647Z,6.60
2024-02-26T04:41:57.823Z,6.50
2024-02-26T04:44:26.250Z,6.60
2024-02-26T04:46:54.372Z,6.60
2024-02-26T04:49:22.696Z,6.70
2024-02-26T04:51:50.893Z,6.80
2024-02-26T04:54:19.620Z,6.80
2024-02-26T04:56:49.200Z,6.80
2024-02-26T04:59:17.522Z,6.80
2024-02-26T05:01:45.670Z,6.70
2024-02-26T05:04:13.955Z,6.70
2024-02-26T05:06:42.187Z,6.80
2024-02-26T05:09:10.470Z,6.70
2024-02-26T05:11:40.622Z,6.70
2024-02-26T05:14:11.225Z,6.60
2024-02-26T05:16:39.554Z,6.50
2024-02-26T05:19:07.901Z,6.50
2024-02-26T05:21:36.447Z,6.40
2024-02-26T05:24:04.926Z,6.40
2024-02-26T05:26:33.096Z,6.30
2024-02-26T05:29:01.574Z,6.30
2024-02-26T05:31:30.980Z,6.20
2024-02-26T05:33:59.350Z,6.20
2024-02-26T05:36:29.832Z,6.20
2024-02-26T05:38:58.836Z,6.20
2024-02-26T05:41:27.639Z,6.10
2024-02-26T05:43:56.237Z,6.10
2024-02-26T05:46:24.736Z,6.10
2024-02-26T05:48:56.048Z,6.10
2024-02-26T05:51:24.295Z,6.20
2024-02-26T05:53:55.833Z,6.10
2024-02-26T05:56:24.372Z,6.20
2024-02-26T05:58:53.130Z,6.10
2024-02-26T06:01:22.824Z,6.10
2024-02-26T06:03:51.123Z,6.20
2024-02-26T06:06:20.813Z,6.40
2024-02-26T06:08:48.979Z,6.20
2024-02-26T06:11:17.160Z,6.30
2024-02-26T06:13:45.380Z,6.30
2024-02-26T06:16:13.515Z,6.30
2024-02-26T06:18:41.756Z,6.30
2024-02-26T06:21:12.492Z,6.30
2024-02-26T06:23:42.337Z,6.10
2024-02-26T06:26:11.468Z,6.00
2024-02-26T06:28:43.868Z,5.80
2024-02-26T06:31:12.019Z,5.80
2024-02-26T06:33:40.300Z,5.80
2024-02-26T06:36:09.118Z,5.80
2024-02-26T06:38:37.190Z,5.80
2024-02-26T06:41:06.792Z,5.70
2024-02-26T06:43:34.857Z,5.70
2024-02-26T06:46:03.558Z,5.80
2024-02-26T06:48:31.890Z,5.90
2024-02-26T06:51:00.127Z,6.00
2024-02-26T06:53:28.538Z,6.10
2024-02-26T06:55:56.812Z,6.10
2024-02-26T06:58:26.291Z,6.40
2024-02-26T07:00:54.633Z,6.40
2024-02-26T07:03:24.355Z,6.40
2024-02-26T07:05:53.052Z,6.50
2024-02-26T07:08:21.627Z,6.60
2024-02-26T07:10:49.739Z,6.60
2024-02-26T07:13:17.816Z,6.60
2024-02-26T07:15:47.392Z,6.60
2024-02-26T07:18:15.675Z,6.50
2024-02-26T07:20:43.906Z,6.50
2024-02-26T07:23:12.185Z,6.50
2024-02-26T07:25:40.962Z,6.60
2024-02-26T07:28:09.207Z,6.60
2024-02-26T07:30:37.335Z,6.70
2024-02-26T07:33:08.011Z,6.70
2024-02-26T07:35:37.567Z,6.90
2024-02-26T07:38:05.912Z,7.10
2024-02-26T07:40:34.037Z,7.10
2024-02-26T07:43:02.175Z,7.10
2024-02-26T07:45:30.455Z,7.10
2024-02-26T07:47:58.610Z,7.10
2024-02-26T07:50:28.055Z,7.20
2024-02-26T07:52:56.255Z,7.10
2024-02-26T07:55:24.295Z,7.10
2024-02-26T07:57:52.277Z,7.20
2024-02-26T08:00:21.307Z,7.20
2024-02-26T08:02:49.450Z,7.30
2024-02-26T08:05:17.657Z,7.50
2024-02-26T08:07:47.057Z,7.60
2024-02-26T08:10:15.402Z,7.40
2024-02-26T08:12:43.544Z,7.40
2024-02-26T08:15:12.702Z,7.40
2024-02-26T08:17:40.914Z,7.40
2024-02-26T08:20:10.286Z,7.40
2024-02-26T08:22:40.355Z,7.50
2024-02-26T08:25:11.205Z,7.50
2024-02-26T08:27:39.285Z,7.50
2024-02-26T08:30:08.749Z,7.60
2024-02-26T08:32:36.897Z,7.60
2024-02-26T08:35:15.950Z,7.70
2024-02-26T08:37:46.894Z,7.80
2024-02-26T08:40:16.760Z,7.80
2024-02-26T08:42:44.787Z,7.80
2024-02-26T08:45:13.790Z,7.90
2024-02-26T08:47:41.994Z,7.90
2024-02-26T08:50:13.225Z,7.90
2024-02-26T08:52:41.595Z,8.00
2024-02-26T08:55:10.946Z,8.00
2024-02-26T08:57:40.384Z,8.10
2024-02-26T09:00:09.918Z,8.10
2024-02-26T09:02:39.802Z,8.20
2024-02-26T09:05:08.691Z,8.30
2024-02-26T09:07:36.880Z,8.30
2024-02-26T09:10:05.805Z,8.50
2024-02-26T09:12:33.949Z,8.50
2024-02-26T09:15:03.509Z,8.50
2024-02-26T09:17:31.691Z,8.60
2024-02-26T09:19:59.807Z,8.60
2024-02-26T09:22:27.970Z,8.70
2024-02-26T09:24:56.127Z,8.90
2024-02-26T09:27:24.816Z,8.90
2024-02-26T09:29:53.050Z,9.10
2024-02-26T09:32:22.518Z,9.20
2024-02-26T09:34:50.524Z,9.30
2024-02-26T09:37:22.458Z,9.50
2024-02-26T09:39:50.862Z,9.70
2024-02-26T09:42:21.532Z,10.00
2024-02-26T09:44:52.143Z,10.50
2024-02-26T09:47:21.704Z,11.00
2024-02-26T09:49:54.258Z,11.70
2024-02-26T09:52:23.360Z,12.50
2024-02-26T09:54:51.536Z,13.20
2024-02-26T09:57:19.698Z,13.50
2024-02-26T09:59:50.465Z,13.90
2024-02-26T10:02:20.099Z,14.30
2024-02-26T10:04:52.583Z,14.20
2024-02-26T10:07:30.896Z,14.20
2024-02-26T10:09:59.116Z,14.10
2024-02-26T10:12:29.565Z,13.80
2024-02-26T10:14:57.659Z,13.60
2024-02-26T10:17:26.226Z,13.40
2024-02-26T10:19:57.716Z,13.20
2024-02-26T10:22:29.618Z,12.90
2024-02-26T10:24:57.630Z,12.80
2024-02-26T10:27:26.449Z,12.70
2024-02-26T10:29:54.698Z,12.60
2024-02-26T10:32:22.959Z,12.50
2024-02-26T10:34:51.087Z,12.40
2024-02-26T10:37:19.644Z,12.40
2024-02-26T10:39:50.479Z,12.30
2024-02-26T10:42:20.845Z,12.20
2024-02-26T10:44:49.837Z,12.20
2024-02-26T10:47:18.577Z,12.20
2024-02-26T10:49:50.257Z,12.10
2024-02-26T10:52:21.284Z,12.10
2024-02-26T10:54:57.658Z,12.20
2024-02-26T10:57:33.648Z,12.20
2024-02-26T11:00:05.461Z,12.10
2024-02-26T11:02:35.418Z,12.20
2024-02-26T11:05:06.055Z,12.20
2024-02-26T11:07:35.248Z,12.20
2024-02-26T11:10:05.548Z,12.20
2024-02-26T11:12:36.946Z,12.30
2024-02-26T11:15:06.400Z,12.30
2024-02-26T11:17:39.730Z,12.40
2024-02-26T11:20:16.884Z,12.50
2024-02-26T11:22:45.173Z,12.60
2024-02-26T11:25:14.935Z,12.70
2024-02-26T11:27:48.537Z,12.70
2024-02-26T11:30:18.241Z,12.80
2024-02-26T11:32:48.064Z,12.90
2024-02-26T11:35:19.005Z,12.90
2024-02-26T11:37:55.784Z,13.00
2024-02-26T11:40:26.805Z,13.20
2024-02-26T11:42:55.978Z,13.40
2024-02-26T11:45:53.737Z,13.50
2024-02-26T11:48:27.095Z,13.70
2024-02-26T11:50:56.913Z,13.90
2024-02-26T11:53:28.094Z,14.10
2024-02-26T11:56:30.490Z,14.30
2024-02-26T11:59:04.328Z,14.30
2024-02-26T12:01:38.976Z,14.20
2024-02-26T12:04:08.359Z,14.00
2024-02-26T12:06:48.032Z,13.70
2024-02-26T12:09:32.532Z,13.80
2024-02-26T12:12:03.420Z,13.90
2024-02-26T12:14:31.860Z,13.90
2024-02-26T12:17:00.834Z,14.00
2024-02-26T12:19:30.621Z,14.00
2024-02-26T12:21:58.777Z,14.00
2024-02-26T12:24:27.300Z,14.10
2024-02-26T12:26:55.367Z,14.10
2024-02-26T12:29:24.697Z,14.30
2024-02-26T12:31:52.797Z,14.40
2024-02-26T12:34:21.220Z,14.60
2024-02-26T12:36:49.381Z,14.70
2024-02-26T12:39:17.482Z,14.70
2024-02-26T12:41:50.550Z,14.70
2024-02-26T12:44:18.667Z,14.60
2024-02-26T12:46:48.295Z,14.50
2024-02-26T12:49:19.215Z,14.50
2024-02-26T12:51:47.551Z,14.30
2024-02-26T12:54:16.543Z,14.30
2024-02-26T12:56:44.753Z,14.20
2024-02-26T12:59:12.972Z,14.20
2024-02-26T13:01:41.366Z,14.20
2024-02-26T13:04:11.661Z,14.10
2024-02-26T13:06:40.097Z,14.10
2024-02-26T13:09:08.406Z,14.00
2024-02-26T13:11:36.629Z,14.20
2024-02-26T13:14:07.941Z,14.20
2024-02-26T13:16:36.983Z,14.10
2024-02-26T13:19:12.482Z,14.10
2024-02-26T13:21:40.626Z,14.10
2024-02-26T13:24:09.053Z,14.10
2024-02-26T13:26:37.121Z,14.30
2024-02-26T13:29:05.515Z,14.30
2024-02-26T13:31:33.856Z,14.40
2024-02-26T13:34:01.974Z,14.40
2024-02-26T13:36:31.543Z,14.40
2024-02-26T13:38:59.685Z,14.40
2024-02-26T13:41:28.278Z,14.40
2024-02-26T13:43:56.312Z,14.50
2024-02-26T13:46:24.357Z,14.60
2024-02-26T13:48:55.020Z,14.80
2024-02-26T13:51:23.163Z,14.90
2024-02-26T13:53:52.512Z,15.00
2024-02-26T13:56:20.622Z,14.90
2024-02-26T13:58:49.284Z,14.90
2024-02-26T14:01:17.330Z,14.90
2024-02-26T14:03:45.554Z,15.20
2024-02-26T14:06:14.320Z,15.20
2024-02-26T14:08:42.660Z,15.20
2024-02-26T14:11:12.065Z,15.30
2024-02-26T14:13:41.481Z,15.40
2024-02-26T14:16:11.750Z,15.40
2024-02-26T14:18:40.226Z,15.50
2024-02-26T14:21:08.492Z,15.60
2024-02-26T14:23:37.161Z,15.70
2024-02-26T14:26:05.577Z,15.60
2024-02-26T14:28:36.767Z,15.40
2024-02-26T14:31:11.512Z,15.40
2024-02-26T14:33:41.878Z,15.20
2024-02-26T14:36:10.714Z,15.10
2024-02-26T14:38:39.912Z,15.00
2024-02-26T14:41:07.948Z,14.90
2024-02-26T14:43:37.791Z,14.90
2024-02-26T14:46:05.968Z,14.80
2024-02-26T14:48:34.322Z,14.70
2024-02-26T14:51:02.560Z,14.50
2024-02-26T14:53:30.584Z,14.40
2024-02-26T14:55:58.620Z,14.30
2024-02-26T14:58:26.591Z,14.30
2024-02-26T15:00:55.999Z,14.30
2024-02-26T15:03:24.090Z,14.10
2024-02-26T15:05:52.674Z,14.20
2024-02-26T15:08:20.764Z,14.00
2024-02-26T15:10:49.852Z,13.90
2024-02-26T15:13:19.325Z,13.90
2024-02-26T15:15:48.129Z,13.80
2024-02-26T15:18:18.118Z,13.70
2024-02-26T15:20:47.341Z,13.80
2024-02-26T15:23:15.723Z,13.70
2024-02-26T15:25:44.534Z,13.80
2024-02-26T15:28:15.164Z,13.60
2024-02-26T15:30:43.591Z,13.60
2024-02-26T15:33:13.136Z,13.50
2024-02-26T15:35:43.526Z,13.40
2024-02-26T15:38:11.676Z,13.30
2024-02-26T15:40:39.880Z,13.10
2024-02-26T15:43:08.060Z,13.30
2024-02-26T15:45:36.066Z,13.20
2024-02-26T15:48:04.387Z,13.30
2024-02-26T15:50:32.468Z,13.20
2024-02-26T15:53:02.360Z,13.10
2024-02-26T15:55:30.845Z,13.10
2024-02-26T15:57:58.806Z,13.00
2024-02-26T16:00:27.118Z,13.00
2024-02-26T16:02:55.091Z,13.00
2024-02-26T16:05:23.207Z,13.00
2024-02-26T16:07:56.037Z,12.90
2024-02-26T16:10:28.364Z,12.80
2024-02-26T16:13:00.438Z,12.80
2024-02-26T16:15:30.565Z,12.80
2024-02-26T16:17:59.833Z,12.70
2024-02-26T16:20:30.598Z,12.90
2024-02-26T16:22:59.730Z,12.70
2024-02-26T16:25:29.418Z,12.80
2024-02-26T16:27:57.400Z,12.80
2024-02-26T16:30:25.472Z,12.80
2024-02-26T16:33:15.048Z,12.70
2024-02-26T16:35:45.176Z,12.60
2024-02-26T16:38:13.272Z,12.50
2024-02-26T16:40:43.673Z,12.40
2024-02-26T16:43:11.675Z,12.40
2024-02-26T16:45:40.908Z,12.30
2024-02-26T16:48:09.533Z,12.20
2024-02-26T16:50:37.710Z,12.20
2024-02-26T16:53:05.944Z,12.20
2024-02-26T16:55:33.947Z,12.10
2024-02-26T16:58:03.369Z,12.10
2024-02-26T17:00:33.064Z,12.00
2024-02-26T17:03:01.857Z,12.00
2024-02-26T17:05:30.379Z,12.10
2024-02-26T17:07:58.357Z,12.00
2024-02-26T17:10:26.521Z,12.00
2024-02-26T17:12:54.587Z,11.90
2024-02-26T17:15:27.218Z,12.00
2024-02-26T17:17:55.446Z,12.00
2024-02-26T17:20:23.711Z,11.90
2024-02-26T17:22:51.787Z,11.90
2024-02-26T17:25:20.509Z,11.90
2024-02-26T17:27:48.641Z,11.80
2024-02-26T17:30:16.795Z,11.80
2024-02-26T17:32:46.258Z,11.80
2024-02-26T17:35:16.496Z,11.80
2024-02-26T17:37:45.507Z,11.80
2024-02-26T17:40:14.357Z,11.80
2024-02-26T17:42:42.514Z,11.70
2024-02-26T17:45:14.533Z,11.80
2024-02-26T17:47:42.995Z,11.80
2024-02-26T17:50:12.883Z,11.70
2024-02-26T17:52:40.910Z,11.70
2024-02-26T17:55:10.003Z,11.70
2024-02-26T17:57:38.249Z,11.80
2024-02-26T18:00:07.973Z,11.80
2024-02-26T18:02:36.444Z,11.80
2024-02-26T18:05:05.909Z,11.70
2024-02-26T18:07:41.412Z,11.60
2024-02-26T18:10:12.452Z,11.60
2024-02-26T18:12:44.389Z,11.60
2024-02-26T18:15:12.866Z,11.50
2024-02-26T18:17:56.901Z,11.40
2024-02-26T18:20:27.431Z,11.30
2024-02-26T18:22:58.839Z,11.40
2024-02-26T18:25:30.235Z,11.30
2024-02-26T18:28:01.764Z,11.20
2024-02-26T18:30:29.996Z,11.30
2024-02-26T18:33:03.095Z,11.30
2024-02-26T18:35:31.813Z,11.30
2024-02-26T18:38:02.387Z,11.20
2024-02-26T18:40:30.894Z,11.20
2024-02-26T18:42:59.928Z,11.10
2024-02-26T18:45:28.742Z,11.10
2024-02-26T18:48:00.634Z,11.10
2024-02-26T18:50:28.783Z,11.00
2024-02-26T18:53:02.783Z,11.00
2024-02-26T18:55:34.420Z,11.00
2024-02-26T18:58:05.059Z,10.80
2024-02-26T19:00:33.363Z,11.00
2024-02-26T19:03:01.686Z,11.00
2024-02-26T19:05:32.474Z,11.00
2024-02-26T19:08:02.658Z,10.90
2024-02-26T19:10:32.694Z,10.90
2024-02-26T19:13:00.798Z,10.90
2024-02-26T19:15:29.486Z,10.80
2024-02-26T19:18:02.058Z,10.80
2024-02-26T19:20:32.433Z,10.80
2024-02-26T19:23:00.561Z,10.90
2024-02-26T19:25:29.052Z,10.80
2024-02-26T19:27:59.012Z,10.80
2024-02-26T19:30:29.802Z,10.70
2024-02-26T19:33:00.985Z,10.80
2024-02-26T19:35:29.254Z,10.80
2024-02-26T19:38:01.745Z,10.80
2024-02-26T19:40:29.746Z,10.80
2024-02-26T19:42:59.713Z,10.70
2024-02-26T19:45:30.328Z,10.70
2024-02-26T19:48:00.624Z,10.70
2024-02-26T19:50:29.180Z,10.70
2024-02-26T19:52:58.367Z,10.60
2024-02-26T19:55:28.806Z,10.50
2024-02-26T19:57:59.654Z,10.60
2024-02-26T20:00:34.034Z,10.60
2024-02-26T20:03:04.256Z,10.50
2024-02-26T20:05:32.840Z,10.50
2024-02-26T20:08:01.280Z,10.50
2024-02-26T20:10:30.238Z,10.40
2024-02-26T20:13:01.522Z,10.40
2024-02-26T20:15:30.420Z,10.50
2024-02-26T20:17:58.875Z,10.50
2024-02-26T20:20:30.487Z,10.40
2024-02-26T20:22:58.947Z,10.30
2024-02-26T20:25:27.022Z,10.30
2024-02-26T20:27:55.750Z,10.30
2024-02-26T20:30:29.528Z,10.30
2024-02-26T20:32:57.846Z,10.30
2024-02-26T20:35:28.116Z,10.30
2024-02-26T20:38:02.222Z,10.30
2024-02-26T20:40:30.427Z,10.30
2024-02-26T20:42:58.655Z,10.30
2024-02-26T20:45:29.673Z,10.30
2024-02-26T20:47:58.799Z,10.20
2024-02-26T20:50:27.370Z,10.20
2024-02-26T20:52:57.808Z,10.20
2024-02-26T20:55:29.575Z,10.20
2024-02-26T20:57:58.926Z,10.10
2024-02-26T21:00:28.745Z,10.10
2024-02-26T21:02:58.703Z,10.10
2024-02-26T21:05:29.015Z,10.00
2024-02-26T21:07:57.571Z,10.10
2024-02-26T21:10:31.612Z,10.20
2024-02-26T21:13:00.391Z,9.90
2024-02-26T21:15:33.992Z,9.80
2024-02-26T21:18:02.641Z,9.80
2024-02-26T21:20:34.182Z,9.80
2024-02-26T21:23:05.568Z,9.80
2024-02-26T21:25:33.826Z,9.80
2024-02-26T21:28:08.443Z,9.80
2024-02-26T21:30:38.100Z,9.80
2024-02-26T21:33:07.758Z,9.80
2024-02-26T21:35:36.942Z,9.80
2024-02-26T21:38:08.304Z,9.90
2024-02-26T21:40:38.193Z,9.80
2024-02-26T21:43:07.078Z,9.80
2024-02-26T21:45:37.906Z,9.80
2024-02-26T21:48:08.723Z,9.90
2024-02-26T21:50:38.144Z,9.70
2024-02-26T21:53:09.787Z,9.70
2024-02-26T21:55:40.946Z,9.70
2024-02-26T21:58:12.073Z,9.70
2024-02-26T22:00:40.286Z,9.80
2024-02-26T22:03:09.932Z,9.70
2024-02-26T22:05:38.755Z,9.70
2024-02-26T22:08:09.394Z,9.60
2024-02-26T22:10:39.054Z,9.60
2024-02-26T22:13:07.239Z,9.60
2024-02-26T22:15:35.680Z,9.60
2024-02-26T22:18:04.300Z,9.50
2024-02-26T22:20:33.814Z,9.50
2024-02-26T22:23:01.879Z,9.50
2024-02-26T22:25:30.449Z,9.50
2024-02-26T22:27:58.784Z,9.50
2024-02-26T22:30:26.796Z,9.60
2024-02-26T22:32:55.326Z,9.60
2024-02-26T22:35:24.103Z,9.60
2024-02-26T22:37:53.645Z,9.50
2024-02-26T22:40:21.666Z,9.50
2024-02-26T22:42:56.411Z,9.50
2024-02-26T22:45:25.688Z,9.60
2024-02-26T22:47:54.039Z,9.50
2024-02-26T22:50:22.276Z,9.40
2024-02-26T22:52:50.940Z,9.50
2024-02-26T22:55:24.608Z,9.40
2024-02-26T22:57:52.889Z,9.40
2024-02-26T23:00:32.829Z,9.50
2024-02-26T23:03:01.533Z,9.50
2024-02-26T23:05:30.445Z,9.50
2024-02-26T23:07:58.855Z,9.50
2024-02-26T23:10:28.809Z,9.40
2024-02-26T23:12:57.299Z,9.50
2024-02-26T23:15:25.521Z,9.50
2024-02-26T23:17:54.286Z,9.50
2024-02-26T23:20:23.473Z,9.40
2024-02-26T23:22:52.466Z,9.40
2024-02-26T23:25:20.938Z,9.50
2024-02-26T23:27:50.763Z,9.50
2024-02-26T23:30:20.330Z,9.40
2024-02-26T23:32:48.533Z,9.40
2024-02-26T23:35:16.557Z,9.40
2024-02-26T23:37:44.592Z,9.40
2024-02-26T23:40:12.822Z,9.40
2024-02-26T23:42:41.288Z,9.30
2024-02-26T23:45:11.344Z,9.40
2024-02-26T23:47:39.780Z,9.30
2024-02-26T23:50:08.710Z,9.30
2024-02-26T23:52:36.788Z,9.30
2024-02-26T23:55:05.035Z,9.30
2024-02-26T23:57:33.104Z,9.40
